sensor_id;sensor_type;location;lat;lon;timestamp;temperature;humidity
22008;DHT22;11168;56.976;24.168;2023-11-18T00:01:37;-0.60;99.90
22008;DHT22;11168;56.976;24.168;2023-11-18T00:04:58;-0.70;99.90
22008;DHT22;11168;56.976;24.168;2023-11-18T00:07:31;-0.70;99.90
22008;DHT22;11168;56.976;24.168;2023-11-18T00:09:59;-0.80;99.90
22008;DHT22;11168;56.976;24.168;2023-11-18T00:12:26;-0.80;99.90
22008;DHT22;11168;56.976;24.168;2023-11-18T00:14:53;-0.80;99.90
22008;DHT22;11168;56.976;24.168;2023-11-18T00:17:20;-0.80;99.90
22008;DHT22;11168;56.976;24.168;2023-11-18T00:19:47;-0.80;99.90
22008;DHT22;11168;56.976;24.168;2023-11-18T00:22:14;-0.80;99.90
22008;DHT22;11168;56.976;24.168;2023-11-18T00:24:41;-0.80;99.90
22008;DHT22;11168;56.976;24.168;2023-11-18T00:27:10;-0.80;99.90
22008;DHT22;11168;56.976;24.168;2023-11-18T00:29:37;-0.90;99.90
22008;DHT22;11168;56.976;24.168;2023-11-18T00:32:04;-0.80;99.90
22008;DHT22;11168;56.976;24.168;2023-11-18T00:34:35;-0.90;99.90
22008;DHT22;11168;56.976;24.168;2023-11-18T00:37:02;-0.90;99.90
22008;DHT22;11168;56.976;24.168;2023-11-18T00:39:29;-0.80;99.90
22008;DHT22;11168;56.976;24.168;2023-11-18T00:41:56;-0.80;99.90
22008;DHT22;11168;56.976;24.168;2023-11-18T00:44:23;-0.90;99.90
22008;DHT22;11168;56.976;24.168;2023-11-18T00:46:50;-0.90;99.90
22008;DHT22;11168;56.976;24.168;2023-11-18T00:49:17;-0.90;99.90
22008;DHT22;11168;56.976;24.168;2023-11-18T00:51:44;-0.90;99.90
22008;DHT22;11168;56.976;24.168;2023-11-18T00:54:11;-0.90;99.90
22008;DHT22;11168;56.976;24.168;2023-11-18T00:56:39;-0.90;99.90
22008;DHT22;11168;56.976;24.168;2023-11-18T00:59:06;-1.00;99.90
22008;DHT22;11168;56.976;24.168;2023-11-18T01:01:33;-1.00;99.90
22008;DHT22;11168;56.976;24.168;2023-11-18T01:04:00;-0.90;99.90
22008;DHT22;11168;56.976;24.168;2023-11-18T01:06:27;-1.00;99.90
22008;DHT22;11168;56.976;24.168;2023-11-18T01:08:55;-1.00;99.90
22008;DHT22;11168;56.976;24.168;2023-11-18T01:11:21;-0.90;99.90
22008;DHT22;11168;56.976;24.168;2023-11-18T01:13:52;-0.90;99.90
22008;DHT22;11168;56.976;24.168;2023-11-18T01:16:21;-1.00;99.90
22008;DHT22;11168;56.976;24.168;2023-11-18T01:18:48;-1.00;99.90
22008;DHT22;11168;56.976;24.168;2023-11-18T01:21:15;-1.00;99.90
22008;DHT22;11168;56.976;24.168;2023-11-18T01:23:44;-1.00;99.90
22008;DHT22;11168;56.976;24.168;2023-11-18T01:26:12;-1.00;99.90
22008;DHT22;11168;56.976;24.168;2023-11-18T01:28:39;-1.00;99.90
22008;DHT22;11168;56.976;24.168;2023-11-18T01:31:11;-1.00;99.90
22008;DHT22;11168;56.976;24.168;2023-11-18T01:33:39;-1.10;99.90
22008;DHT22;11168;56.976;24.168;2023-11-18T01:36:08;-1.10;99.90
22008;DHT22;11168;56.976;24.168;2023-11-18T01:38:36;-1.10;99.90
22008;DHT22;11168;56.976;24.168;2023-11-18T01:41:05;-1.00;99.90
22008;DHT22;11168;56.976;24.168;2023-11-18T01:43:32;-1.00;99.90
22008;DHT22;11168;56.976;24.168;2023-11-18T01:46:03;-1.00;99.90
22008;DHT22;11168;56.976;24.168;2023-11-18T01:48:31;-1.00;99.90
22008;DHT22;11168;56.976;24.168;2023-11-18T01:51:01;-1.00;99.90
22008;DHT22;11168;56.976;24.168;2023-11-18T01:53:30;-0.90;99.90
22008;DHT22;11168;56.976;24.168;2023-11-18T01:55:57;-1.00;99.90
22008;DHT22;11168;56.976;24.168;2023-11-18T01:58:26;-1.00;99.90
22008;DHT22;11168;56.976;24.168;2023-11-18T02:00:55;-1.00;99.90
22008;DHT22;11168;56.976;24.168;2023-11-18T02:03:22;-1.00;99.90
22008;DHT22;11168;56.976;24.168;2023-11-18T02:05:49;-1.00;99.90
22008;DHT22;11168;56.976;24.168;2023-11-18T02:08:19;-1.00;99.90
22008;DHT22;11168;56.976;24.168;2023-11-18T02:10:48;-1.00;99.90
22008;DHT22;11168;56.976;24.168;2023-11-18T02:13:26;-0.90;99.90
22008;DHT22;11168;56.976;24.168;2023-11-18T02:15:56;-0.90;99.90
22008;DHT22;11168;56.976;24.168;2023-11-18T02:18:29;-0.90;99.90
22008;DHT22;11168;56.976;24.168;2023-11-18T02:20:57;-1.00;99.90
22008;DHT22;11168;56.976;24.168;2023-11-18T02:23:25;-1.00;99.90
22008;DHT22;11168;56.976;24.168;2023-11-18T02:25:53;-1.00;99.90
22008;DHT22;11168;56.976;24.168;2023-11-18T02:28:20;-1.10;99.90
22008;DHT22;11168;56.976;24.168;2023-11-18T02:30:50;-1.10;99.90
22008;DHT22;11168;56.976;24.168;2023-11-18T02:33:27;-1.20;99.90
22008;DHT22;11168;56.976;24.168;2023-11-18T02:36:32;-1.10;99.90
22008;DHT22;11168;56.976;24.168;2023-11-18T02:39:25;-1.10;99.90
22008;DHT22;11168;56.976;24.168;2023-11-18T02:41:55;-1.10;99.90
22008;DHT22;11168;56.976;24.168;2023-11-18T02:44:24;-1.20;99.90
22008;DHT22;11168;56.976;24.168;2023-11-18T02:46:52;-1.10;99.90
22008;DHT22;11168;56.976;24.168;2023-11-18T02:49:19;-1.10;99.90
22008;DHT22;11168;56.976;24.168;2023-11-18T02:51:46;-1.20;99.90
22008;DHT22;11168;56.976;24.168;2023-11-18T02:54:14;-1.10;99.90
22008;DHT22;11168;56.976;24.168;2023-11-18T02:56:43;-1.20;99.90
22008;DHT22;11168;56.976;24.168;2023-11-18T02:59:10;-1.10;99.90
22008;DHT22;11168;56.976;24.168;2023-11-18T03:01:37;-1.10;99.90
22008;DHT22;11168;56.976;24.168;2023-11-18T03:04:08;-1.20;99.90
22008;DHT22;11168;56.976;24.168;2023-11-18T03:06:35;-1.20;99.90
22008;DHT22;11168;56.976;24.168;2023-11-18T03:09:03;-1.20;99.90
22008;DHT22;11168;56.976;24.168;2023-11-18T03:11:34;-1.20;99.90
22008;DHT22;11168;56.976;24.168;2023-11-18T03:14:01;-1.10;99.90
22008;DHT22;11168;56.976;24.168;2023-11-18T03:16:28;-1.20;99.90
22008;DHT22;11168;56.976;24.168;2023-11-18T03:18:55;-1.20;99.90
22008;DHT22;11168;56.976;24.168;2023-11-18T03:21:22;-1.20;99.90
22008;DHT22;11168;56.976;24.168;2023-11-18T03:23:49;-1.30;99.90
22008;DHT22;11168;56.976;24.168;2023-11-18T03:26:16;-1.20;99.90
22008;DHT22;11168;56.976;24.168;2023-11-18T03:28:43;-1.20;99.90
22008;DHT22;11168;56.976;24.168;2023-11-18T03:31:10;-1.30;99.90
22008;DHT22;11168;56.976;24.168;2023-11-18T03:33:38;-1.20;99.90
22008;DHT22;11168;56.976;24.168;2023-11-18T03:36:06;-1.30;99.90
22008;DHT22;11168;56.976;24.168;2023-11-18T03:38:33;-1.30;99.90
22008;DHT22;11168;56.976;24.168;2023-11-18T03:41:00;-1.30;99.90
22008;DHT22;11168;56.976;24.168;2023-11-18T03:43:27;-1.30;99.90
22008;DHT22;11168;56.976;24.168;2023-11-18T03:45:54;-1.20;99.90
22008;DHT22;11168;56.976;24.168;2023-11-18T03:48:23;-1.20;99.90
22008;DHT22;11168;56.976;24.168;2023-11-18T03:50:51;-1.30;99.90
22008;DHT22;11168;56.976;24.168;2023-11-18T03:53:18;-1.30;99.90
22008;DHT22;11168;56.976;24.168;2023-11-18T03:55:45;-1.30;99.90
22008;DHT22;11168;56.976;24.168;2023-11-18T03:58:12;-1.30;99.90
22008;DHT22;11168;56.976;24.168;2023-11-18T04:00:39;-1.40;99.90
22008;DHT22;11168;56.976;24.168;2023-11-18T04:03:05;-1.30;99.90
22008;DHT22;11168;56.976;24.168;2023-11-18T04:05:34;-1.30;99.90
22008;DHT22;11168;56.976;24.168;2023-11-18T04:08:01;-1.30;99.90
22008;DHT22;11168;56.976;24.168;2023-11-18T04:10:28;-1.30;99.90
22008;DHT22;11168;56.976;24.168;2023-11-18T04:12:55;-1.30;99.90
22008;DHT22;11168;56.976;24.168;2023-11-18T04:15:23;-1.30;99.90
22008;DHT22;11168;56.976;24.168;2023-11-18T04:17:51;-1.30;99.90
22008;DHT22;11168;56.976;24.168;2023-11-18T04:20:18;-1.40;99.90
22008;DHT22;11168;56.976;24.168;2023-11-18T04:22:45;-1.40;99.90
22008;DHT22;11168;56.976;24.168;2023-11-18T04:25:12;-1.40;99.90
22008;DHT22;11168;56.976;24.168;2023-11-18T04:27:39;-1.40;99.90
22008;DHT22;11168;56.976;24.168;2023-11-18T04:30:11;-1.40;99.90
22008;DHT22;11168;56.976;24.168;2023-11-18T04:32:39;-1.40;99.90
22008;DHT22;11168;56.976;24.168;2023-11-18T04:35:09;-1.40;99.90
22008;DHT22;11168;56.976;24.168;2023-11-18T04:37:39;-1.50;99.90
22008;DHT22;11168;56.976;24.168;2023-11-18T04:40:10;-1.40;99.90
22008;DHT22;11168;56.976;24.168;2023-11-18T04:42:39;-1.40;99.90
22008;DHT22;11168;56.976;24.168;2023-11-18T04:45:06;-1.40;99.90
22008;DHT22;11168;56.976;24.168;2023-11-18T04:47:37;-1.40;99.90
22008;DHT22;11168;56.976;24.168;2023-11-18T04:50:05;-1.40;99.90
22008;DHT22;11168;56.976;24.168;2023-11-18T04:52:32;-1.40;99.90
22008;DHT22;11168;56.976;24.168;2023-11-18T04:55:03;-1.40;99.90
22008;DHT22;11168;56.976;24.168;2023-11-18T04:57:30;-1.40;99.90
22008;DHT22;11168;56.976;24.168;2023-11-18T04:59:57;-1.40;99.90
22008;DHT22;11168;56.976;24.168;2023-11-18T05:02:24;-1.30;99.90
22008;DHT22;11168;56.976;24.168;2023-11-18T05:04:51;-1.30;99.90
22008;DHT22;11168;56.976;24.168;2023-11-18T05:07:18;-1.30;99.90
22008;DHT22;11168;56.976;24.168;2023-11-18T05:09:45;-1.30;99.90
22008;DHT22;11168;56.976;24.168;2023-11-18T05:12:12;-1.40;99.90
22008;DHT22;11168;56.976;24.168;2023-11-18T05:14:39;-1.40;99.90
22008;DHT22;11168;56.976;24.168;2023-11-18T05:17:06;-1.30;99.90
22008;DHT22;11168;56.976;24.168;2023-11-18T05:19:33;-1.30;99.90
22008;DHT22;11168;56.976;24.168;2023-11-18T05:22:00;-1.40;99.90
22008;DHT22;11168;56.976;24.168;2023-11-18T05:24:27;-1.40;99.90
22008;DHT22;11168;56.976;24.168;2023-11-18T05:26:54;-1.40;99.90
22008;DHT22;11168;56.976;24.168;2023-11-18T05:29:21;-1.40;99.90
22008;DHT22;11168;56.976;24.168;2023-11-18T05:31:48;-1.50;99.90
22008;DHT22;11168;56.976;24.168;2023-11-18T05:34:15;-1.40;99.90
22008;DHT22;11168;56.976;24.168;2023-11-18T05:36:42;-1.40;99.90
22008;DHT22;11168;56.976;24.168;2023-11-18T05:39:09;-1.40;99.90
22008;DHT22;11168;56.976;24.168;2023-11-18T05:41:36;-1.50;99.90
22008;DHT22;11168;56.976;24.168;2023-11-18T05:44:07;-1.40;99.90
22008;DHT22;11168;56.976;24.168;2023-11-18T05:46:36;-1.40;99.90
22008;DHT22;11168;56.976;24.168;2023-11-18T05:49:05;-1.40;99.90
22008;DHT22;11168;56.976;24.168;2023-11-18T05:51:34;-1.40;99.90
22008;DHT22;11168;56.976;24.168;2023-11-18T05:54:02;-1.30;99.90
22008;DHT22;11168;56.976;24.168;2023-11-18T05:56:29;-1.40;99.90
22008;DHT22;11168;56.976;24.168;2023-11-18T05:58:56;-1.40;99.90
22008;DHT22;11168;56.976;24.168;2023-11-18T06:01:24;-1.40;99.90
22008;DHT22;11168;56.976;24.168;2023-11-18T06:03:54;-1.40;99.90
22008;DHT22;11168;56.976;24.168;2023-11-18T06:06:21;-1.40;99.90
22008;DHT22;11168;56.976;24.168;2023-11-18T06:08:50;-1.40;99.90
22008;DHT22;11168;56.976;24.168;2023-11-18T06:11:18;-1.40;99.90
22008;DHT22;11168;56.976;24.168;2023-11-18T06:13:53;-1.40;99.90
22008;DHT22;11168;56.976;24.168;2023-11-18T06:16:21;-1.40;99.90
22008;DHT22;11168;56.976;24.168;2023-11-18T06:18:50;-1.40;99.90
22008;DHT22;11168;56.976;24.168;2023-11-18T06:21:19;-1.40;99.90
22008;DHT22;11168;56.976;24.168;2023-11-18T06:23:47;-1.30;99.90
22008;DHT22;11168;56.976;24.168;2023-11-18T06:26:15;-1.30;99.90
22008;DHT22;11168;56.976;24.168;2023-11-18T06:28:43;-1.40;99.90
22008;DHT22;11168;56.976;24.168;2023-11-18T06:31:11;-1.40;99.90
22008;DHT22;11168;56.976;24.168;2023-11-18T06:33:43;-1.40;99.90
22008;DHT22;11168;56.976;24.168;2023-11-18T06:38:41;-1.40;99.90
22008;DHT22;11168;56.976;24.168;2023-11-18T06:41:08;-1.30;99.90
22008;DHT22;11168;56.976;24.168;2023-11-18T06:43:39;-1.40;99.90
22008;DHT22;11168;56.976;24.168;2023-11-18T06:46:28;-1.40;99.90
22008;DHT22;11168;56.976;24.168;2023-11-18T06:48:59;-1.30;99.90
22008;DHT22;11168;56.976;24.168;2023-11-18T06:51:27;-1.40;99.90
22008;DHT22;11168;56.976;24.168;2023-11-18T06:53:55;-1.30;99.90
22008;DHT22;11168;56.976;24.168;2023-11-18T06:56:26;-1.30;99.90
22008;DHT22;11168;56.976;24.168;2023-11-18T06:58:53;-1.30;99.90
22008;DHT22;11168;56.976;24.168;2023-11-18T07:01:20;-1.30;99.90
22008;DHT22;11168;56.976;24.168;2023-11-18T07:03:48;-1.30;99.90
22008;DHT22;11168;56.976;24.168;2023-11-18T07:06:19;-1.30;99.90
22008;DHT22;11168;56.976;24.168;2023-11-18T07:08:50;-1.20;99.90
22008;DHT22;11168;56.976;24.168;2023-11-18T07:11:18;-1.20;99.90
22008;DHT22;11168;56.976;24.168;2023-11-18T07:13:46;-1.20;99.90
22008;DHT22;11168;56.976;24.168;2023-11-18T07:16:14;-1.30;99.90
22008;DHT22;11168;56.976;24.168;2023-11-18T07:18:42;-1.30;99.90
22008;DHT22;11168;56.976;24.168;2023-11-18T07:21:09;-1.20;99.90
22008;DHT22;11168;56.976;24.168;2023-11-18T07:23:36;-1.30;99.90
22008;DHT22;11168;56.976;24.168;2023-11-18T07:26:03;-1.30;99.90
22008;DHT22;11168;56.976;24.168;2023-11-18T07:28:30;-1.20;99.90
22008;DHT22;11168;56.976;24.168;2023-11-18T07:30:58;-1.30;99.90
22008;DHT22;11168;56.976;24.168;2023-11-18T07:33:26;-1.30;99.90
22008;DHT22;11168;56.976;24.168;2023-11-18T07:35:54;-1.20;99.90
22008;DHT22;11168;56.976;24.168;2023-11-18T07:38:21;-1.20;99.90
22008;DHT22;11168;56.976;24.168;2023-11-18T07:40:49;-1.10;99.90
22008;DHT22;11168;56.976;24.168;2023-11-18T07:43:16;-1.10;99.90
22008;DHT22;11168;56.976;24.168;2023-11-18T07:45:43;-1.10;99.90
22008;DHT22;11168;56.976;24.168;2023-11-18T07:48:11;-1.20;99.90
22008;DHT22;11168;56.976;24.168;2023-11-18T07:50:44;-1.10;99.90
22008;DHT22;11168;56.976;24.168;2023-11-18T07:53:11;-1.10;99.90
22008;DHT22;11168;56.976;24.168;2023-11-18T07:55:38;-1.10;99.90
22008;DHT22;11168;56.976;24.168;2023-11-18T07:58:09;-1.20;99.90
22008;DHT22;11168;56.976;24.168;2023-11-18T08:00:37;-1.20;99.90
22008;DHT22;11168;56.976;24.168;2023-11-18T08:03:06;-1.20;99.90
22008;DHT22;11168;56.976;24.168;2023-11-18T08:05:42;-1.10;99.90
22008;DHT22;11168;56.976;24.168;2023-11-18T08:08:13;-1.10;99.90
22008;DHT22;11168;56.976;24.168;2023-11-18T08:10:41;-1.10;99.90
22008;DHT22;11168;56.976;24.168;2023-11-18T08:13:10;-1.10;99.90
22008;DHT22;11168;56.976;24.168;2023-11-18T08:15:43;-1.00;99.90
22008;DHT22;11168;56.976;24.168;2023-11-18T08:18:13;-1.10;99.90
22008;DHT22;11168;56.976;24.168;2023-11-18T08:20:40;-1.10;99.90
22008;DHT22;11168;56.976;24.168;2023-11-18T08:23:08;-1.00;99.90
22008;DHT22;11168;56.976;24.168;2023-11-18T08:25:35;-1.00;99.90
22008;DHT22;11168;56.976;24.168;2023-11-18T08:28:03;-1.10;99.90
22008;DHT22;11168;56.976;24.168;2023-11-18T08:30:31;-1.00;99.90
22008;DHT22;11168;56.976;24.168;2023-11-18T08:33:01;-1.00;99.90
22008;DHT22;11168;56.976;24.168;2023-11-18T08:35:32;-1.00;99.90
22008;DHT22;11168;56.976;24.168;2023-11-18T08:37:59;-1.00;99.90
22008;DHT22;11168;56.976;24.168;2023-11-18T08:40:27;-1.00;99.90
22008;DHT22;11168;56.976;24.168;2023-11-18T08:42:54;-1.00;99.90
22008;DHT22;11168;56.976;24.168;2023-11-18T08:45:27;-1.00;99.90
22008;DHT22;11168;56.976;24.168;2023-11-18T08:48:01;-1.00;99.90
22008;DHT22;11168;56.976;24.168;2023-11-18T08:50:28;-1.00;99.90
22008;DHT22;11168;56.976;24.168;2023-11-18T08:52:58;-1.00;99.90
22008;DHT22;11168;56.976;24.168;2023-11-18T08:55:32;-1.00;99.90
22008;DHT22;11168;56.976;24.168;2023-11-18T08:58:09;-1.00;99.90
22008;DHT22;11168;56.976;24.168;2023-11-18T09:00:51;-1.00;99.90
22008;DHT22;11168;56.976;24.168;2023-11-18T09:03:20;-1.00;99.90
22008;DHT22;11168;56.976;24.168;2023-11-18T09:05:55;-1.00;99.90
22008;DHT22;11168;56.976;24.168;2023-11-18T09:08:37;-1.00;99.90
22008;DHT22;11168;56.976;24.168;2023-11-18T09:11:12;-0.90;99.90
22008;DHT22;11168;56.976;24.168;2023-11-18T09:13:45;-0.90;99.90
22008;DHT22;11168;56.976;24.168;2023-11-18T09:16:14;-0.90;99.90
22008;DHT22;11168;56.976;24.168;2023-11-18T09:18:43;-1.00;99.90
22008;DHT22;11168;56.976;24.168;2023-11-18T09:21:14;-1.00;99.90
22008;DHT22;11168;56.976;24.168;2023-11-18T09:23:43;-1.00;99.90
22008;DHT22;11168;56.976;24.168;2023-11-18T09:26:11;-1.00;99.90
22008;DHT22;11168;56.976;24.168;2023-11-18T09:28:38;-1.00;99.90
22008;DHT22;11168;56.976;24.168;2023-11-18T09:31:05;-1.00;99.90
22008;DHT22;11168;56.976;24.168;2023-11-18T09:33:34;-1.00;99.90
22008;DHT22;11168;56.976;24.168;2023-11-18T09:36:06;-0.90;99.90
22008;DHT22;11168;56.976;24.168;2023-11-18T09:38:40;-0.90;99.90
22008;DHT22;11168;56.976;24.168;2023-11-18T09:41:09;-0.80;99.90
22008;DHT22;11168;56.976;24.168;2023-11-18T09:43:40;-0.90;99.90
22008;DHT22;11168;56.976;24.168;2023-11-18T09:46:17;-0.90;99.90
22008;DHT22;11168;56.976;24.168;2023-11-18T09:48:51;-0.80;99.90
22008;DHT22;11168;56.976;24.168;2023-11-18T09:51:28;-0.80;99.90
22008;DHT22;11168;56.976;24.168;2023-11-18T09:54:00;-0.80;99.90
22008;DHT22;11168;56.976;24.168;2023-11-18T09:59:15;-0.70;99.90
22008;DHT22;11168;56.976;24.168;2023-11-18T10:01:51;-0.70;99.90
22008;DHT22;11168;56.976;24.168;2023-11-18T10:04:20;-0.80;99.90
22008;DHT22;11168;56.976;24.168;2023-11-18T10:06:48;-0.70;99.90
22008;DHT22;11168;56.976;24.168;2023-11-18T10:09:19;-0.80;99.90
22008;DHT22;11168;56.976;24.168;2023-11-18T10:11:55;-0.80;99.90
22008;DHT22;11168;56.976;24.168;2023-11-18T10:14:35;-0.80;99.90
22008;DHT22;11168;56.976;24.168;2023-11-18T10:17:04;-0.80;99.90
22008;DHT22;11168;56.976;24.168;2023-11-18T10:19:56;-0.80;99.90
22008;DHT22;11168;56.976;24.168;2023-11-18T10:22:26;-0.80;99.90
22008;DHT22;11168;56.976;24.168;2023-11-18T10:24:57;-0.80;99.90
22008;DHT22;11168;56.976;24.168;2023-11-18T10:27:28;-0.80;99.90
22008;DHT22;11168;56.976;24.168;2023-11-18T10:30:02;-0.80;99.90
22008;DHT22;11168;56.976;24.168;2023-11-18T10:32:30;-0.80;99.90
22008;DHT22;11168;56.976;24.168;2023-11-18T10:35:04;-0.80;99.90
22008;DHT22;11168;56.976;24.168;2023-11-18T10:37:37;-0.80;99.90
22008;DHT22;11168;56.976;24.168;2023-11-18T10:40:11;-0.80;99.90
22008;DHT22;11168;56.976;24.168;2023-11-18T10:42:41;-0.70;99.90
22008;DHT22;11168;56.976;24.168;2023-11-18T10:45:09;-0.80;99.90
22008;DHT22;11168;56.976;24.168;2023-11-18T10:47:42;-0.80;99.90
22008;DHT22;11168;56.976;24.168;2023-11-18T10:50:09;-0.70;99.90
22008;DHT22;11168;56.976;24.168;2023-11-18T10:52:37;-0.70;99.90
22008;DHT22;11168;56.976;24.168;2023-11-18T10:55:08;-0.70;99.90
22008;DHT22;11168;56.976;24.168;2023-11-18T10:57:40;-0.70;99.90
22008;DHT22;11168;56.976;24.168;2023-11-18T11:00:10;-0.80;99.90
22008;DHT22;11168;56.976;24.168;2023-11-18T11:02:42;-0.80;99.90
22008;DHT22;11168;56.976;24.168;2023-11-18T11:05:10;-0.80;99.90
22008;DHT22;11168;56.976;24.168;2023-11-18T11:07:48;-0.70;99.90
22008;DHT22;11168;56.976;24.168;2023-11-18T11:10:16;-0.60;99.90
22008;DHT22;11168;56.976;24.168;2023-11-18T11:12:50;-0.60;99.90
22008;DHT22;11168;56.976;24.168;2023-11-18T11:15:28;-0.70;99.90
22008;DHT22;11168;56.976;24.168;2023-11-18T11:18:07;-0.50;99.90
22008;DHT22;11168;56.976;24.168;2023-11-18T11:20:47;-0.50;99.90
22008;DHT22;11168;56.976;24.168;2023-11-18T11:23:21;-0.60;99.90
22008;DHT22;11168;56.976;24.168;2023-11-18T11:26:02;-0.50;99.90
22008;DHT22;11168;56.976;24.168;2023-11-18T11:28:42;-0.50;99.90
22008;DHT22;11168;56.976;24.168;2023-11-18T11:31:40;-0.50;99.90
22008;DHT22;11168;56.976;24.168;2023-11-18T11:34:19;-0.50;99.90
22008;DHT22;11168;56.976;24.168;2023-11-18T11:36:48;-0.50;99.90
22008;DHT22;11168;56.976;24.168;2023-11-18T11:39:19;-0.60;99.90
22008;DHT22;11168;56.976;24.168;2023-11-18T11:41:53;-0.70;99.90
22008;DHT22;11168;56.976;24.168;2023-11-18T11:44:24;-0.70;99.90
22008;DHT22;11168;56.976;24.168;2023-11-18T11:46:59;-0.70;99.90
22008;DHT22;11168;56.976;24.168;2023-11-18T11:49:33;-0.60;99.90
22008;DHT22;11168;56.976;24.168;2023-11-18T11:52:09;-0.60;99.90
22008;DHT22;11168;56.976;24.168;2023-11-18T11:55:07;-0.60;99.90
22008;DHT22;11168;56.976;24.168;2023-11-18T11:57:40;-0.60;99.90
22008;DHT22;11168;56.976;24.168;2023-11-18T12:00:10;-0.60;99.90
22008;DHT22;11168;56.976;24.168;2023-11-18T12:02:50;-0.60;99.90
22008;DHT22;11168;56.976;24.168;2023-11-18T12:05:24;-0.70;99.90
22008;DHT22;11168;56.976;24.168;2023-11-18T12:07:55;-0.70;99.90
22008;DHT22;11168;56.976;24.168;2023-11-18T12:10:32;-0.60;99.90
22008;DHT22;11168;56.976;24.168;2023-11-18T12:13:09;-0.60;99.90
22008;DHT22;11168;56.976;24.168;2023-11-18T12:15:51;-0.60;99.90
22008;DHT22;11168;56.976;24.168;2023-11-18T12:18:22;-0.60;99.90
22008;DHT22;11168;56.976;24.168;2023-11-18T12:20:49;-0.60;99.90
22008;DHT22;11168;56.976;24.168;2023-11-18T12:23:29;-0.60;99.90
22008;DHT22;11168;56.976;24.168;2023-11-18T12:25:57;-0.60;99.90
22008;DHT22;11168;56.976;24.168;2023-11-18T12:28:31;-0.60;99.90
22008;DHT22;11168;56.976;24.168;2023-11-18T12:31:03;-0.60;99.90
22008;DHT22;11168;56.976;24.168;2023-11-18T12:39:41;-0.70;99.90
22008;DHT22;11168;56.976;24.168;2023-11-18T12:42:44;-0.70;99.90
22008;DHT22;11168;56.976;24.168;2023-11-18T12:45:43;-0.80;99.90
22008;DHT22;11168;56.976;24.168;2023-11-18T12:48:14;-0.70;99.90
22008;DHT22;11168;56.976;24.168;2023-11-18T12:50:41;-0.60;99.90
22008;DHT22;11168;56.976;24.168;2023-11-18T12:53:12;-0.60;99.90
22008;DHT22;11168;56.976;24.168;2023-11-18T12:55:42;-0.60;99.90
22008;DHT22;11168;56.976;24.168;2023-11-18T12:58:09;-0.60;99.90
22008;DHT22;11168;56.976;24.168;2023-11-18T13:00:40;-0.60;99.90
22008;DHT22;11168;56.976;24.168;2023-11-18T13:03:09;-0.50;99.90
22008;DHT22;11168;56.976;24.168;2023-11-18T13:05:38;-0.50;99.90
22008;DHT22;11168;56.976;24.168;2023-11-18T13:08:05;-0.60;99.90
22008;DHT22;11168;56.976;24.168;2023-11-18T13:10:32;-0.50;99.90
22008;DHT22;11168;56.976;24.168;2023-11-18T13:12:59;-0.50;99.90
22008;DHT22;11168;56.976;24.168;2023-11-18T13:15:27;-0.50;99.90
22008;DHT22;11168;56.976;24.168;2023-11-18T13:17:59;-0.50;99.90
22008;DHT22;11168;56.976;24.168;2023-11-18T13:20:27;-0.50;99.90
22008;DHT22;11168;56.976;24.168;2023-11-18T13:22:54;-0.50;99.90
22008;DHT22;11168;56.976;24.168;2023-11-18T13:25:23;-0.60;99.90
22008;DHT22;11168;56.976;24.168;2023-11-18T13:27:50;-0.50;99.90
22008;DHT22;11168;56.976;24.168;2023-11-18T13:30:18;-0.60;99.90
22008;DHT22;11168;56.976;24.168;2023-11-18T13:32:47;-0.60;99.90
22008;DHT22;11168;56.976;24.168;2023-11-18T13:35:16;-0.50;99.90
22008;DHT22;11168;56.976;24.168;2023-11-18T13:37:49;-0.60;99.90
22008;DHT22;11168;56.976;24.168;2023-11-18T13:40:16;-0.50;99.90
22008;DHT22;11168;56.976;24.168;2023-11-18T13:42:45;-0.50;99.90
22008;DHT22;11168;56.976;24.168;2023-11-18T13:45:15;-0.50;99.90
22008;DHT22;11168;56.976;24.168;2023-11-18T13:48:02;-0.60;99.90
22008;DHT22;11168;56.976;24.168;2023-11-18T13:50:29;-0.50;99.90
22008;DHT22;11168;56.976;24.168;2023-11-18T13:52:56;-0.50;99.90
22008;DHT22;11168;56.976;24.168;2023-11-18T13:55:24;-0.50;99.90
22008;DHT22;11168;56.976;24.168;2023-11-18T13:57:55;-0.50;99.90
22008;DHT22;11168;56.976;24.168;2023-11-18T14:00:25;-0.60;99.90
22008;DHT22;11168;56.976;24.168;2023-11-18T14:02:58;-0.60;99.90
22008;DHT22;11168;56.976;24.168;2023-11-18T14:05:26;-0.60;99.90
22008;DHT22;11168;56.976;24.168;2023-11-18T14:07:54;-0.60;99.90
22008;DHT22;11168;56.976;24.168;2023-11-18T14:10:35;-0.60;99.90
22008;DHT22;11168;56.976;24.168;2023-11-18T14:13:05;-0.60;99.90
22008;DHT22;11168;56.976;24.168;2023-11-18T14:15:42;-0.60;99.90
22008;DHT22;11168;56.976;24.168;2023-11-18T14:18:12;-0.60;99.90
22008;DHT22;11168;56.976;24.168;2023-11-18T14:20:41;-0.60;99.90
22008;DHT22;11168;56.976;24.168;2023-11-18T14:23:08;-0.60;99.90
22008;DHT22;11168;56.976;24.168;2023-11-18T14:25:35;-0.60;99.90
22008;DHT22;11168;56.976;24.168;2023-11-18T14:28:03;-0.60;99.90
22008;DHT22;11168;56.976;24.168;2023-11-18T14:30:30;-0.60;99.90
22008;DHT22;11168;56.976;24.168;2023-11-18T14:32:57;-0.60;99.90
22008;DHT22;11168;56.976;24.168;2023-11-18T14:35:24;-0.60;99.90
22008;DHT22;11168;56.976;24.168;2023-11-18T14:37:55;-0.70;99.90
22008;DHT22;11168;56.976;24.168;2023-11-18T14:40:25;-0.70;99.90
22008;DHT22;11168;56.976;24.168;2023-11-18T14:42:52;-0.60;99.90
22008;DHT22;11168;56.976;24.168;2023-11-18T14:45:19;-0.60;99.90
22008;DHT22;11168;56.976;24.168;2023-11-18T14:47:46;-0.60;99.90
22008;DHT22;11168;56.976;24.168;2023-11-18T14:50:20;-0.60;99.90
22008;DHT22;11168;56.976;24.168;2023-11-18T14:52:48;-0.60;99.90
22008;DHT22;11168;56.976;24.168;2023-11-18T14:55:18;-0.60;99.90
22008;DHT22;11168;56.976;24.168;2023-11-18T14:57:45;-0.60;99.90
22008;DHT22;11168;56.976;24.168;2023-11-18T15:00:14;-0.60;99.90
22008;DHT22;11168;56.976;24.168;2023-11-18T15:02:53;-0.50;99.90
22008;DHT22;11168;56.976;24.168;2023-11-18T15:05:25;-0.60;99.90
22008;DHT22;11168;56.976;24.168;2023-11-18T15:07:56;-0.60;99.90
22008;DHT22;11168;56.976;24.168;2023-11-18T15:10:25;-0.60;99.90
22008;DHT22;11168;56.976;24.168;2023-11-18T15:12:57;-0.60;99.90
22008;DHT22;11168;56.976;24.168;2023-11-18T15:15:27;-0.60;99.90
22008;DHT22;11168;56.976;24.168;2023-11-18T15:18:04;-0.60;99.90
22008;DHT22;11168;56.976;24.168;2023-11-18T15:20:36;-0.60;99.90
22008;DHT22;11168;56.976;24.168;2023-11-18T15:23:03;-0.60;99.90
22008;DHT22;11168;56.976;24.168;2023-11-18T15:25:31;-0.60;99.90
22008;DHT22;11168;56.976;24.168;2023-11-18T15:27:58;-0.60;99.90
22008;DHT22;11168;56.976;24.168;2023-11-18T15:30:26;-0.60;99.90
22008;DHT22;11168;56.976;24.168;2023-11-18T15:32:54;-0.50;99.90
22008;DHT22;11168;56.976;24.168;2023-11-18T15:35:22;-0.60;99.90
22008;DHT22;11168;56.976;24.168;2023-11-18T15:37:49;-0.60;99.90
22008;DHT22;11168;56.976;24.168;2023-11-18T15:40:18;-0.50;99.90
22008;DHT22;11168;56.976;24.168;2023-11-18T15:42:52;-0.60;99.90
22008;DHT22;11168;56.976;24.168;2023-11-18T15:45:21;-0.60;99.90